Nearby METAR Reports

 

KSJC - San Jose, California, USA
Distance from station: NE 14km
Actualización: 15/07/2020 17:53
Muy nuboso
Muy nuboso
 Viento del SSE
Viento: SSE 17 km/h
Temperatura: 17°C
Rocío: 11°C
Humedad: 68%
Barómetro: 1013.5 hPa
Clouds: Muy nuboso
Visibility: 16 km
Cloud details: Few Clouds 427 m
Muy nuboso 1524 m
Muy nuboso 2286 m
2020/07/15 15:53 KSJC 151553Z 16009KT 10SM FEW014 BKN050 BKN075 17/11 A2993 RMK AO2 SLP135 FU BKN050 FU BKN075 T01670111
KNUQ - Moffett Nas/Mtn, California, USA
Distance from station: N 14km
Actualización: 15/07/2020 15:55
NOT Current
Parcialmente nuboso
Parcialmente nuboso
 Viento del SSE
Viento: SSE 11 km/h
Temperatura: 15°C
Rocío: 12°C
Humedad: 82%
Barómetro: 1013.2 hPa
Clouds: Parcialmente nuboso
Visibility: 16 km
Cloud details: Parcialmente nuboso 488 m
2020/07/15 13:55 KNUQ 151355Z AUTO 15006KT 10SM SCT016 15/12 A2992 RMK AO2
 
KPAO - Palo Alto, California, USA
Distance from station: NNO 23km
Actualización: 15/07/2020 18:47
Parcialmente nuboso
Parcialmente nuboso
 Viento del E
Viento: E 13 km/h
Temperatura: 18°C
Rocío: 13°C
Humedad: 73%
Barómetro: 1013.2 hPa
Clouds: Parcialmente nuboso
Visibility: 16 km
Cloud details: Few Clouds 457 m
Parcialmente nuboso 1676 m
2020/07/15 16:47 KPAO 151647Z 09007KT 10SM FEW015 SCT055 18/13 A2992
KRHV - San Jose/Reid, California, USA
Distance from station: ENE 19km
Actualización: 15/07/2020 17:50
Muy nuboso
Muy nuboso
 Viento del S
Viento: S 11 km/h
Temperatura: 17°C
Rocío: 12°C
Humedad: 73%
Barómetro: 1013.9 hPa
Clouds: Muy nuboso
Visibility: 16 km
Cloud details: Parcialmente nuboso 914 m
Muy nuboso 2286 m
2020/07/15 15:50 KRHV 151550Z 17006KT 10SM SCT030 BKN075 17/12 A2994
 
KOAK - Oakland, California, USA
Distance from station: NNO 50km
Actualización: 15/07/2020 17:53
Cubierto
Cubierto
 Viento del NO
Viento: NO 7 km/h
Temperatura: 18°C
Rocío: 13°C
Humedad: 73%
Barómetro: 1013.9 hPa
Clouds: Cubierto
Visibility: 16 km
Cloud details: Cubierto 427 m
2020/07/15 15:53 KOAK 151553Z 31004KT 10SM OVC014 18/13 A2994 RMK AO2 SLP136 T01780128
KSQL - San Carlos Airpo, California, USA
Distance from station: NO 34km
Actualización: 15/07/2020 17:47
Cubierto
Cubierto
 Viento del calm
Viento: Calma
Temperatura: 17°C
Rocío: 13°C
Humedad: 77%
Barómetro: 1013.9 hPa
Clouds: Cubierto
Visibility: 16 km
Cloud details: Cubierto 457 m
2020/07/15 15:47 KSQL 151547Z 00000KT 10SM OVC015 17/13 A2994
 
KSFO - San Francisco, California, USA
Distance from station: NO 49km
Actualización: 15/07/2020 18:11
Muy nuboso
Muy nuboso
 Viento del calm
Viento: Calma
Temperatura: 17°C
Rocío: 12°C
Humedad: 73%
Barómetro: 1013.5 hPa
Clouds: Muy nuboso
Visibility: 14 km
Cloud details: Muy nuboso 457 m
2020/07/15 16:11 KSFO 151611Z 00000KT 9SM BKN015 17/12 A2993 RMK AO2 T01670122
KE16 - San Martin, California, USA
Distance from station: ESE 43km
Actualización: 15/07/2020 18:35
Few Clouds
Few Clouds
 Viento del ESE
Viento: ESE 20 km/h
Temperatura: 15°C
Rocío: 12°C
Humedad: 82%
Barómetro: 1014.9 hPa
Clouds: Few Clouds
Visibility: 16 km
Cloud details: Few Clouds 366 m
2020/07/15 16:35 KE16 151635Z AUTO 11011KT 10SM FEW012 15/12 A2997 RMK AO2 PWINO PNO
 
KWVI - Watsonville, California, USA
Distance from station: SSE 44km
Actualización: 15/07/2020 18:10
Cubierto
Cubierto
 Viento del O
Viento: O 9 km/h
Temperatura: 14°C
Rocío: 12°C
Humedad: 88%
Barómetro: 1014.9 hPa
Clouds: Cubierto
Visibility: 16 km
Cloud details: Cubierto 274 m
2020/07/15 16:10 KWVI 151610Z AUTO 27005KT 10SM OVC009 14/12 A2997 RMK AO2 T01440122
KHAF - Half Moon Bay, California, USA
Distance from station: ONO 50km
Actualización: 14/07/2020 17:40
NOT Current
Mist, Muy nuboso
Mist, Muy nuboso
 Viento del S
Viento: S 20 km/h
Temperatura: 13°C
Rocío: 11°C
Humedad: 88%
Barómetro: 1014.9 hPa
Resumen: Mist
Clouds: Muy nuboso
Visibility: 5 km
Cloud details: Muy nuboso 396 m
2020/07/14 15:40 KHAF 141540Z AUTO 17011KT 3SM BR BKN013 13/11 A2997 RMK AO2
 
KHWD - Hayward, California, USA
Distance from station: N 44km
Actualización: 15/07/2020 17:54
Despejado
Despejado
 Viento del varies
Viento: varies 6 km/h
Temperatura: 17°C
Rocío: 12°C
Humedad: 73%
Barómetro: 1013.5 hPa
Clouds: Despejado
Visibility: 16 km
2020/07/15 15:54 KHWD 151554Z VRB03KT 10SM CLR 17/12 A2993 RMK AO2 SLP143 T01720122
KLVK - Livermore, California, USA
Distance from station: NNE 51km
Actualización: 15/07/2020 17:53
Despejado
Despejado
 Viento del OSO
Viento: OSO 6 km/h
Temperatura: 17°C
Rocío: 12°C
Humedad: 73%
Barómetro: 1013.2 hPa
Clouds: Despejado
Visibility: 16 km
2020/07/15 15:53 KLVK 151553Z 25003KT 10SM CLR 17/12 A2992 RMK AO2 SLP130 T01670122